サラエボ の空港の天気 - METARとTAF

サラエボ国際空港 ( LQSA / SJJ ) - ボスニア・ヘルツェゴビナ サラエボ
飛行場実況気象(Metar)
観測時間07/19 02:00 CEST (07/19 00:00 UTC)
風向・風速不定 1m/s
視程10km以上
天気現象
全天の8割程度の雲 雲底高度 1520m
気温16℃
湿度88%
気圧1015hPa
METARLQSA 190000Z VRB02KT 9999 BKN050 16/14 Q1015
過去の天気等 Google飛行場航空写真 Wunderground天気予報

過去48時間のMETAR

飛行場予報(TAF)
発表時間: 7/19 01:00 CEST (7/18 23:00 UTC)
予報対象時間: 19日2時 CEST ~ 20日2時 CEST
風向・風速西北西 3m/s
視程10km以上
全天の4割程度の雲 雲底高度 1830m
19日4時 CEST ~ 19日8時 CEST に 確率 30% で一時的に
視程3000m
天気現象もや
全天の8割程度の雲 雲底高度 460m
全天の8割程度の雲 雲底高度 910m
19日11時 CEST ~ 19日20時 CEST に一時的に
風向・風速北北西 8m/s
TAF LQSA 182300Z 1900/1924 30005KT 9999 SCT060 TX27/1914Z TN13/1903Z
PROB30 TEMPO 1902/1906 3000 BR BKN015 BKN030
TEMPO 1909/1918 33015KT